createdAt,value
2022-09-20T00:03:00.466Z,2.50
2022-09-20T00:06:02.853Z,2.63
2022-09-20T00:09:05.347Z,2.78
2022-09-20T00:12:07.463Z,2.90
2022-09-20T00:15:09.524Z,3.93
2022-09-20T00:18:12.072Z,3.47
2022-09-20T00:21:18.206Z,2.70
2022-09-20T00:24:20.276Z,3.33
2022-09-20T00:27:22.209Z,2.55
2022-09-20T00:30:24.425Z,3.67
2022-09-20T00:33:46.384Z,3.22
2022-09-20T00:36:48.336Z,2.40
2022-09-20T00:39:50.279Z,2.70
2022-09-20T00:42:52.297Z,4.57
2022-09-20T00:45:54.561Z,3.28
2022-09-20T00:48:59.667Z,3.05
2022-09-20T00:52:02.266Z,5.80
2022-09-20T00:55:07.107Z,4.25
2022-09-20T00:58:09.468Z,3.90
2022-09-20T01:01:11.769Z,4.88
2022-09-20T01:04:14.870Z,4.20
2022-09-20T01:07:18.161Z,10.77
2022-09-20T01:10:20.157Z,3.80
2022-09-20T01:13:22.111Z,3.97
2022-09-20T01:16:24.546Z,4.70
2022-09-20T01:19:26.795Z,5.38
2022-09-20T01:22:39.104Z,7.22
2022-09-20T01:25:53.221Z,3.67
2022-09-20T01:29:05.731Z,4.37
2022-09-20T01:32:12.706Z,3.67
2022-09-20T01:35:16.019Z,5.72
2022-09-20T01:38:36.738Z,4.32
2022-09-20T01:41:38.722Z,4.23
2022-09-20T01:44:59.417Z,5.28
2022-09-20T01:48:19.928Z,3.85
2022-09-20T01:51:34.083Z,4.30
2022-09-20T01:54:45.233Z,4.47
2022-09-20T01:58:02.179Z,4.80
2022-09-20T02:01:04.210Z,4.55
2022-09-20T02:04:31.368Z,7.63
2022-09-20T02:07:52.455Z,4.68
2022-09-20T02:11:06.004Z,5.22
2022-09-20T02:14:08.843Z,5.82
2022-09-20T02:17:13.937Z,6.40
2022-09-20T02:20:15.891Z,7.65
2022-09-20T02:23:17.815Z,4.70
2022-09-20T02:26:35.651Z,5.35
2022-09-20T02:29:55.956Z,5.03
2022-09-20T02:33:12.943Z,4.32
2022-09-20T02:36:30.916Z,6.20
2022-09-20T02:39:37.452Z,5.37
2022-09-20T02:42:47.638Z,8.32
2022-09-20T02:46:12.616Z,5.03
2022-09-20T02:49:23.518Z,6.67
2022-09-20T02:52:31.305Z,6.45
2022-09-20T02:55:33.228Z,8.38
2022-09-20T02:58:47.453Z,6.95
2022-09-20T03:02:08.352Z,6.67
2022-09-20T03:05:10.403Z,6.72
2022-09-20T03:08:24.335Z,6.70
2022-09-20T03:11:26.238Z,5.57
2022-09-20T03:14:36.597Z,6.22
2022-09-20T03:17:48.908Z,4.70
2022-09-20T03:21:09.786Z,5.15
2022-09-20T03:24:23.845Z,4.55
2022-09-20T03:27:32.792Z,9.55
2022-09-20T03:30:41.876Z,5.15
2022-09-20T03:34:02.277Z,4.73
2022-09-20T03:37:13.363Z,4.63
2022-09-20T03:40:15.835Z,6.53
2022-09-20T03:43:24.144Z,5.13
2022-09-20T03:46:27.096Z,4.73
2022-09-20T03:49:46.154Z,4.85
2022-09-20T03:52:48.129Z,5.43
2022-09-20T03:55:58.886Z,6.97
2022-09-20T03:59:23.555Z,5.50
2022-09-20T04:02:25.517Z,5.18
2022-09-20T04:05:37.724Z,8.32
2022-09-20T04:08:58.635Z,6.13
2022-09-20T04:12:00.532Z,8.90
2022-09-20T04:15:21.486Z,6.32
2022-09-20T04:18:32.546Z,4.80
2022-09-20T04:21:37.888Z,7.22
2022-09-20T04:24:39.866Z,4.93
2022-09-20T04:27:48.842Z,5.50
2022-09-20T04:30:55.387Z,5.03
2022-09-20T04:33:59.544Z,5.63
2022-09-20T04:37:06.239Z,5.35
2022-09-20T04:40:23.320Z,5.27
2022-09-20T04:43:32.963Z,7.70
2022-09-20T04:46:35.687Z,6.78
2022-09-20T04:49:56.332Z,6.50
2022-09-20T04:53:04.177Z,5.70
2022-09-20T04:56:06.153Z,5.85
2022-09-20T04:59:10.297Z,7.47
2022-09-20T05:02:15.335Z,6.82
2022-09-20T05:05:20.362Z,5.78
2022-09-20T05:08:34.484Z,4.95
2022-09-20T05:11:52.443Z,5.85
2022-09-20T05:15:13.208Z,7.83
2022-09-20T05:18:35.130Z,8.07
2022-09-20T05:21:37.060Z,8.15
2022-09-20T05:24:46.865Z,4.68
2022-09-20T05:27:54.369Z,6.20
2022-09-20T05:30:59.078Z,5.57
2022-09-20T05:34:06.957Z,3.88
2022-09-20T05:37:27.543Z,5.30
2022-09-20T05:40:35.583Z,6.15
2022-09-20T05:43:57.927Z,8.88
2022-09-20T05:47:18.441Z,7.75
2022-09-20T05:50:39.499Z,6.70
2022-09-20T05:53:59.988Z,5.55
2022-09-20T05:57:05.361Z,8.52
2022-09-20T06:00:10.289Z,4.27
2022-09-20T06:03:34.047Z,7.28
2022-09-20T06:06:47.226Z,9.70
2022-09-20T06:09:58.503Z,8.05
2022-09-20T06:13:20.749Z,10.27
2022-09-20T06:16:31.798Z,5.55
2022-09-20T06:19:45.880Z,5.80
2022-09-20T06:22:55.557Z,5.17
2022-09-20T06:26:02.574Z,5.33
2022-09-20T06:29:06.915Z,5.38
2022-09-20T06:32:09.028Z,5.15
2022-09-20T06:35:11.398Z,4.33
2022-09-20T06:38:31.866Z,6.57
2022-09-20T06:41:35.082Z,5.32
2022-09-20T06:44:41.331Z,4.45
2022-09-20T06:47:43.856Z,5.03
2022-09-20T06:50:46.436Z,5.77
2022-09-20T06:53:49.553Z,8.87
2022-09-20T06:56:52.221Z,6.70
2022-09-20T06:59:54.342Z,3.63
2022-09-20T07:02:56.900Z,3.88
2022-09-20T07:06:00.640Z,4.73
2022-09-20T07:09:03.042Z,5.20
2022-09-20T07:12:05.523Z,5.80
2022-09-20T07:15:08.419Z,8.43
2022-09-20T07:18:10.425Z,3.47
2022-09-20T07:21:13.654Z,3.33
2022-09-20T07:24:15.729Z,4.53
2022-09-20T07:27:17.863Z,4.75
2022-09-20T07:30:20.463Z,3.65
2022-09-20T07:33:24.934Z,3.75
2022-09-20T07:36:26.949Z,3.33
2022-09-20T07:39:30.032Z,3.23
2022-09-20T07:42:32.176Z,3.22
2022-09-20T07:45:40.738Z,3.08
2022-09-20T07:48:43.731Z,3.78
2022-09-20T07:51:46.110Z,6.77
2022-09-20T07:54:50.016Z,3.30
2022-09-20T07:57:52.635Z,6.78
2022-09-20T08:00:59.407Z,4.03
2022-09-20T08:04:01.764Z,3.22
2022-09-20T08:07:03.872Z,5.47
2022-09-20T08:10:06.366Z,2.57
2022-09-20T08:16:31.624Z,3.58
2022-09-20T08:19:33.699Z,6.22
2022-09-20T08:22:36.173Z,3.40
2022-09-20T08:25:39.622Z,3.93
2022-09-20T08:28:42.166Z,4.22
2022-09-20T08:31:44.310Z,4.50
2022-09-20T08:34:49.331Z,5.75
2022-09-20T08:37:55.227Z,4.20
2022-09-20T08:40:59.899Z,3.27
2022-09-20T08:44:07.824Z,4.75
2022-09-20T08:47:16.778Z,3.38
2022-09-20T08:50:20.021Z,5.38
2022-09-20T08:53:22.205Z,3.03
2022-09-20T08:56:32.087Z,4.23
2022-09-20T08:59:34.619Z,5.75
2022-09-20T09:02:37.124Z,5.78
2022-09-20T09:05:48.336Z,4.70
2022-09-20T09:08:53.452Z,2.70
2022-09-20T09:11:56.385Z,2.77
2022-09-20T09:15:01.232Z,2.20
2022-09-20T09:18:03.662Z,6.75
2022-09-20T09:21:07.772Z,6.47
2022-09-20T09:24:16.398Z,5.07
2022-09-20T09:27:19.604Z,10.77
2022-09-20T09:30:32.342Z,6.32
2022-09-20T09:33:34.381Z,3.35
2022-09-20T09:36:43.703Z,2.80
2022-09-20T09:39:45.898Z,5.00
2022-09-20T09:42:51.280Z,8.50
2022-09-20T09:45:53.721Z,5.07
2022-09-20T09:49:06.753Z,3.00
2022-09-20T09:52:14.574Z,3.10
2022-09-20T09:55:17.394Z,5.77
2022-09-20T09:58:22.046Z,2.80
2022-09-20T10:01:33.231Z,2.63
2022-09-20T10:04:44.875Z,4.25
2022-09-20T10:07:49.898Z,2.17
2022-09-20T10:11:00.859Z,3.97
2022-09-20T10:14:15.056Z,3.83
2022-09-20T10:17:36.152Z,5.22
2022-09-20T10:20:58.179Z,4.95
2022-09-20T10:24:19.105Z,2.55
2022-09-20T10:27:33.283Z,2.80
2022-09-20T10:30:38.251Z,4.23
2022-09-20T10:33:53.241Z,4.03
2022-09-20T10:36:57.638Z,3.00
2022-09-20T10:40:07.255Z,4.03
2022-09-20T10:43:15.983Z,4.03
2022-09-20T10:46:32.673Z,4.90
2022-09-20T10:49:48.431Z,2.55
2022-09-20T10:52:57.440Z,2.78
2022-09-20T10:56:17.997Z,2.40
2022-09-20T10:59:30.172Z,4.33
2022-09-20T11:02:55.334Z,2.33
2022-09-20T11:05:57.710Z,8.02
2022-09-20T11:09:02.364Z,5.18
2022-09-20T11:12:10.328Z,2.20
2022-09-20T11:15:12.390Z,3.93
2022-09-20T11:18:14.498Z,5.90
2022-09-20T11:21:20.683Z,3.38
2022-09-20T11:24:34.763Z,2.10
2022-09-20T11:27:39.934Z,2.10
2022-09-20T11:30:47.575Z,2.77
2022-09-20T11:33:55.837Z,1.80
2022-09-20T11:37:00.846Z,2.92
2022-09-20T11:40:10.034Z,2.78
2022-09-20T11:43:12.909Z,4.85
2022-09-20T11:46:33.161Z,4.10
2022-09-20T11:49:35.226Z,5.40
2022-09-20T11:52:39.959Z,3.55
2022-09-20T11:55:42.795Z,2.67
2022-09-20T11:58:49.325Z,2.47
2022-09-20T12:01:55.081Z,2.80
2022-09-20T12:04:57.828Z,5.30
2022-09-20T12:08:00.894Z,2.85
2022-09-20T12:11:07.344Z,1.33
2022-09-20T12:14:42.373Z,2.75
2022-09-20T12:17:44.318Z,2.20
2022-09-20T12:20:46.649Z,2.60
2022-09-20T12:23:57.626Z,1.70
2022-09-20T12:27:01.451Z,2.28
2022-09-20T12:30:06.851Z,4.00
2022-09-20T12:33:19.351Z,1.00
2022-09-20T12:36:21.419Z,2.17
2022-09-20T12:39:30.053Z,1.92
2022-09-20T12:42:33.188Z,2.25
2022-09-20T12:45:35.476Z,4.07
2022-09-20T12:48:38.079Z,5.23
2022-09-20T12:51:59.374Z,2.03
2022-09-20T12:55:04.544Z,1.80
2022-09-20T12:58:06.755Z,1.38
2022-09-20T13:01:13.938Z,3.10
2022-09-20T13:04:35.260Z,2.70
2022-09-20T13:07:46.999Z,3.47
2022-09-20T13:11:01.046Z,3.80
2022-09-20T13:14:06.194Z,3.13
2022-09-20T13:17:19.435Z,2.85
2022-09-20T13:20:23.698Z,2.07
2022-09-20T13:23:27.179Z,2.57
2022-09-20T13:26:33.429Z,1.63
2022-09-20T13:29:39.231Z,1.40
2022-09-20T13:32:42.417Z,1.95
2022-09-20T13:35:47.061Z,1.87
2022-09-20T13:38:49.634Z,4.73
2022-09-20T13:41:52.034Z,2.95
2022-09-20T13:44:53.974Z,4.05
2022-09-20T13:47:58.106Z,3.20
2022-09-20T13:51:00.165Z,2.60
2022-09-20T13:54:18.493Z,2.13
2022-09-20T13:57:22.627Z,2.42
2022-09-20T14:00:28.353Z,5.47
2022-09-20T14:03:32.399Z,2.20
2022-09-20T14:06:34.954Z,3.07
2022-09-20T14:09:39.457Z,5.30
2022-09-20T14:12:41.649Z,4.38
2022-09-20T14:15:45.088Z,3.13
2022-09-20T14:18:48.028Z,2.67
2022-09-20T14:21:50.225Z,2.93
2022-09-20T14:24:59.534Z,4.27
2022-09-20T14:28:17.569Z,6.78
2022-09-20T14:31:36.636Z,1.83
2022-09-20T14:34:39.863Z,4.43
2022-09-20T14:37:41.911Z,2.30
2022-09-20T14:40:47.817Z,2.35
2022-09-20T14:43:54.489Z,3.42
2022-09-20T14:46:56.872Z,2.07
2022-09-20T14:49:59.179Z,4.07
2022-09-20T14:53:01.147Z,2.63
2022-09-20T14:56:05.821Z,1.95
2022-09-20T14:59:08.073Z,5.47
2022-09-20T15:02:13.856Z,4.63
2022-09-20T15:05:21.671Z,2.92
2022-09-20T15:08:23.784Z,3.15
2022-09-20T15:11:26.607Z,2.45
2022-09-20T15:14:28.605Z,2.72
2022-09-20T15:17:30.588Z,1.93
2022-09-20T15:20:32.524Z,3.30
2022-09-20T15:23:35.610Z,2.22
2022-09-20T15:26:37.652Z,3.33
2022-09-20T15:29:39.897Z,2.22
2022-09-20T15:32:43.974Z,4.67
2022-09-20T15:35:46.359Z,5.22
2022-09-20T15:38:48.354Z,3.03
2022-09-20T15:41:53.503Z,5.00
2022-09-20T15:44:55.555Z,3.60
2022-09-20T15:47:57.980Z,5.67
2022-09-20T15:51:07.098Z,9.80
2022-09-20T15:54:12.786Z,4.78
2022-09-20T15:57:14.739Z,3.08
2022-09-20T16:00:18.125Z,4.05
2022-09-20T16:03:20.608Z,5.70
2022-09-20T16:06:23.334Z,7.43
2022-09-20T16:09:25.318Z,8.07
2022-09-20T16:12:27.456Z,5.88
2022-09-20T16:15:30.017Z,4.65
2022-09-20T16:18:50.563Z,4.77
2022-09-20T16:21:58.224Z,3.05
2022-09-20T16:25:01.460Z,3.80
2022-09-20T16:28:03.412Z,4.05
2022-09-20T16:31:05.306Z,6.68
2022-09-20T16:34:07.229Z,7.40
2022-09-20T16:37:15.897Z,11.10
2022-09-20T16:40:17.880Z,5.10
2022-09-20T16:43:26.347Z,5.32
2022-09-20T16:46:28.554Z,2.15
2022-09-20T16:49:30.508Z,3.73
2022-09-20T16:52:32.457Z,1.80
2022-09-20T16:55:34.357Z,1.98
2022-09-20T16:58:36.374Z,2.75
2022-09-20T17:01:39.462Z,3.97
2022-09-20T17:04:43.831Z,2.70
2022-09-20T17:07:46.955Z,3.25
2022-09-20T17:10:49.803Z,6.32
2022-09-20T17:13:53.414Z,4.60
2022-09-20T17:16:56.694Z,2.40
2022-09-20T17:19:58.667Z,2.00
2022-09-20T17:23:01.504Z,2.72
2022-09-20T17:26:07.635Z,4.03
2022-09-20T17:29:10.554Z,3.05
2022-09-20T17:32:12.533Z,2.58
2022-09-20T17:35:16.578Z,2.37
2022-09-20T17:38:18.930Z,1.98
2022-09-20T17:41:21.444Z,3.05
2022-09-20T17:44:24.106Z,4.47
2022-09-20T17:47:26.038Z,2.95
2022-09-20T17:50:28.219Z,4.57
2022-09-20T17:53:31.696Z,8.13
2022-09-20T17:56:35.715Z,9.18
2022-09-20T17:59:37.804Z,8.73
2022-09-20T18:02:39.754Z,9.93
2022-09-20T18:05:41.701Z,5.90
2022-09-20T18:08:54.094Z,4.60
2022-09-20T18:11:56.504Z,5.15
2022-09-20T18:14:58.564Z,7.50
2022-09-20T18:18:00.490Z,6.70
2022-09-20T18:21:09.293Z,5.60
2022-09-20T18:24:12.106Z,6.10
2022-09-20T18:27:14.127Z,6.72
2022-09-20T18:30:16.070Z,6.45
2022-09-20T18:33:18.065Z,5.97
2022-09-20T18:36:20.360Z,7.55
2022-09-20T18:39:23.200Z,7.95
2022-09-20T18:42:25.719Z,8.35
2022-09-20T18:45:27.717Z,8.97
2022-09-20T18:48:33.383Z,6.37
2022-09-20T18:51:39.401Z,5.40
2022-09-20T18:54:42.113Z,5.50
2022-09-20T18:57:44.631Z,6.68
2022-09-20T19:00:48.273Z,5.20
2022-09-20T19:03:55.743Z,4.20
2022-09-20T19:07:00.887Z,5.43
2022-09-20T19:10:05.640Z,6.25
2022-09-20T19:13:26.054Z,6.33
2022-09-20T19:16:31.334Z,10.90
2022-09-20T19:19:36.579Z,8.27
2022-09-20T19:22:56.846Z,11.60
2022-09-20T19:26:07.336Z,9.55
2022-09-20T19:29:20.083Z,9.23
2022-09-20T19:32:26.058Z,10.90
2022-09-20T19:35:29.967Z,10.05
2022-09-20T19:38:40.200Z,14.85
2022-09-20T19:42:05.365Z,11.33
2022-09-20T19:45:22.820Z,11.30
2022-09-20T19:48:41.098Z,10.52
2022-09-20T19:51:44.212Z,9.20
2022-09-20T19:54:46.793Z,10.90
2022-09-20T19:57:49.268Z,10.80
2022-09-20T20:00:51.846Z,8.43
2022-09-20T20:03:54.355Z,9.43
2022-09-20T20:06:56.424Z,9.15
2022-09-20T20:10:06.540Z,9.13
2022-09-20T20:13:37.542Z,9.60
2022-09-20T20:16:57.967Z,8.55
2022-09-20T20:20:18.736Z,8.18
2022-09-20T20:23:20.694Z,10.70
2022-09-20T20:26:23.706Z,7.53
2022-09-20T20:29:25.658Z,9.27
2022-09-20T20:32:27.586Z,11.20
2022-09-20T20:35:29.516Z,8.50
2022-09-20T20:38:37.565Z,8.40
2022-09-20T20:41:40.749Z,8.03
2022-09-20T20:44:42.811Z,9.88
2022-09-20T20:47:44.792Z,8.32
2022-09-20T20:50:46.846Z,8.15
2022-09-20T20:53:50.002Z,9.80
2022-09-20T20:56:51.932Z,8.98
2022-09-20T20:59:53.892Z,9.95
2022-09-20T21:03:00.047Z,9.98
2022-09-20T21:06:04.334Z,9.50
2022-09-20T21:09:06.841Z,10.13
2022-09-20T21:12:09.388Z,9.75
2022-09-20T21:15:12.065Z,10.57
2022-09-20T21:18:14.698Z,9.43
2022-09-20T21:21:18.236Z,11.80
2022-09-20T21:24:20.228Z,7.00
2022-09-20T21:27:22.142Z,10.10
2022-09-20T21:30:24.126Z,5.68
2022-09-20T21:33:26.141Z,5.50
2022-09-20T21:36:29.422Z,6.77
2022-09-20T21:39:31.362Z,4.80
2022-09-20T21:42:33.367Z,6.40
2022-09-20T21:45:36.340Z,6.05
2022-09-20T21:48:39.436Z,6.50
2022-09-20T21:51:42.716Z,6.30
2022-09-20T21:54:46.464Z,5.97
2022-09-20T21:57:48.373Z,8.07
2022-09-20T22:01:16.501Z,8.30
2022-09-20T22:04:18.442Z,5.68
2022-09-20T22:07:21.049Z,5.40
2022-09-20T22:10:23.523Z,4.17
2022-09-20T22:13:25.568Z,4.75
2022-09-20T22:16:35.027Z,4.72
2022-09-20T22:19:37.752Z,5.32
2022-09-20T22:22:39.684Z,4.70
2022-09-20T22:25:41.704Z,3.87
2022-09-20T22:28:44.196Z,3.50
2022-09-20T22:31:47.028Z,4.13
2022-09-20T22:34:48.956Z,4.07
2022-09-20T22:37:50.894Z,4.70
2022-09-20T22:40:53.874Z,7.93
2022-09-20T22:43:56.569Z,5.18
2022-09-20T22:46:58.479Z,5.13
2022-09-20T22:50:00.383Z,5.20
2022-09-20T22:53:02.319Z,6.88
2022-09-20T22:56:07.275Z,5.07
2022-09-20T22:59:13.656Z,7.07
2022-09-20T23:02:15.621Z,6.03
2022-09-20T23:05:18.236Z,6.18
2022-09-20T23:08:22.434Z,6.63
2022-09-20T23:11:25.087Z,6.13
2022-09-20T23:14:27.072Z,6.50
2022-09-20T23:17:29.045Z,6.70
2022-09-20T23:20:31.551Z,5.90
2022-09-20T23:23:33.479Z,5.97
2022-09-20T23:26:36.789Z,7.65
2022-09-20T23:29:38.764Z,8.20
2022-09-20T23:32:41.055Z,11.27
2022-09-20T23:35:44.382Z,8.83
2022-09-20T23:38:46.933Z,8.55
2022-09-20T23:41:51.289Z,7.13
2022-09-20T23:44:53.520Z,9.88
2022-09-20T23:47:55.469Z,7.47
2022-09-20T23:50:57.492Z,8.15
2022-09-20T23:53:59.537Z,9.20
2022-09-20T23:57:01.650Z,8.95
